createdAt,value
2022-11-09T00:00:48.564Z,17.15
2022-11-09T00:03:15.359Z,17.13
2022-11-09T00:05:42.420Z,17.00
2022-11-09T00:08:10.702Z,17.08
2022-11-09T00:10:38.287Z,17.15
2022-11-09T00:13:05.027Z,17.18
2022-11-09T00:15:31.721Z,17.10
2022-11-09T00:18:02.560Z,17.01
2022-11-09T00:20:29.492Z,16.92
2022-11-09T00:22:56.110Z,16.90
2022-11-09T00:25:22.756Z,16.92
2022-11-09T00:27:49.335Z,16.97
2022-11-09T00:30:15.902Z,16.95
2022-11-09T00:32:42.521Z,16.87
2022-11-09T00:35:09.327Z,17.06
2022-11-09T00:37:35.906Z,17.00
2022-11-09T00:40:02.529Z,17.19
2022-11-09T00:42:29.093Z,17.20
2022-11-09T00:44:55.624Z,17.19
2022-11-09T00:47:22.548Z,17.10
2022-11-09T00:49:49.358Z,16.97
2022-11-09T00:52:16.268Z,16.89
2022-11-09T00:54:42.850Z,16.95
2022-11-09T00:57:09.396Z,17.01
2022-11-09T00:59:36.087Z,17.08
2022-11-09T01:02:03.467Z,17.13
2022-11-09T01:04:30.126Z,17.14
2022-11-09T01:06:56.845Z,17.21
2022-11-09T01:09:23.463Z,17.04
2022-11-09T01:11:50.254Z,16.95
2022-11-09T01:14:16.889Z,16.89
2022-11-09T01:16:43.607Z,16.88
2022-11-09T01:19:11.270Z,16.86
2022-11-09T01:21:37.835Z,16.87
2022-11-09T01:24:04.789Z,16.87
2022-11-09T01:26:32.439Z,16.91
2022-11-09T01:28:59.202Z,16.95
2022-11-09T01:31:25.774Z,17.09
2022-11-09T01:33:53.255Z,17.13
2022-11-09T01:36:23.702Z,17.13
2022-11-09T01:38:50.935Z,17.07
2022-11-09T01:41:26.395Z,17.03
2022-11-09T01:44:06.401Z,17.15
2022-11-09T01:46:43.318Z,17.11
2022-11-09T01:49:19.011Z,17.06
2022-11-09T01:52:13.154Z,17.09
2022-11-09T01:54:49.291Z,17.08
2022-11-09T01:57:22.289Z,16.98
2022-11-09T01:59:55.066Z,17.05
2022-11-09T02:02:22.112Z,17.06
2022-11-09T02:05:03.208Z,17.08
2022-11-09T02:07:29.813Z,17.05
2022-11-09T02:10:20.792Z,17.10
2022-11-09T02:12:50.566Z,16.99
2022-11-09T02:15:17.326Z,16.84
2022-11-09T02:17:45.293Z,16.82
2022-11-09T02:20:13.400Z,16.86
2022-11-09T02:22:41.528Z,16.77
2022-11-09T02:25:09.883Z,16.67
2022-11-09T02:27:38.368Z,16.74
2022-11-09T02:30:05.962Z,16.75
2022-11-09T02:32:32.571Z,16.65
2022-11-09T02:35:00.168Z,16.60
2022-11-09T02:37:38.940Z,16.58
2022-11-09T02:40:13.416Z,16.68
2022-11-09T02:42:40.139Z,16.74
2022-11-09T02:45:07.233Z,16.64
2022-11-09T02:47:33.851Z,16.62
2022-11-09T02:50:00.399Z,16.66
2022-11-09T02:52:27.257Z,16.55
2022-11-09T02:54:53.807Z,16.32
2022-11-09T02:57:20.474Z,16.38
2022-11-09T02:59:47.519Z,16.43
2022-11-09T03:02:14.241Z,16.44
2022-11-09T03:04:40.804Z,16.35
2022-11-09T03:07:08.660Z,16.53
2022-11-09T03:09:36.054Z,16.29
2022-11-09T03:12:22.662Z,16.47
2022-11-09T03:14:49.458Z,16.24
2022-11-09T03:17:17.468Z,16.26
2022-11-09T03:19:45.082Z,16.26
2022-11-09T03:22:13.127Z,16.14
2022-11-09T03:24:39.894Z,15.99
2022-11-09T03:27:07.044Z,16.09
2022-11-09T03:29:33.705Z,16.19
2022-11-09T03:32:01.690Z,16.22
2022-11-09T03:34:28.911Z,16.24
2022-11-09T03:36:56.594Z,16.17
2022-11-09T03:39:23.737Z,16.20
2022-11-09T03:41:50.436Z,16.17
2022-11-09T03:44:16.997Z,16.13
2022-11-09T03:46:43.490Z,16.10
2022-11-09T03:49:10.430Z,16.25
2022-11-09T03:51:37.032Z,16.07
2022-11-09T03:54:03.734Z,16.01
2022-11-09T03:56:30.258Z,16.17
2022-11-09T03:58:56.764Z,16.01
2022-11-09T04:01:23.397Z,15.93
2022-11-09T04:03:50.034Z,16.07
2022-11-09T04:06:16.604Z,16.12
2022-11-09T04:08:48.337Z,16.09
2022-11-09T04:11:19.114Z,16.07
2022-11-09T04:13:45.928Z,16.20
2022-11-09T04:16:12.570Z,16.24
2022-11-09T04:18:39.135Z,16.28
2022-11-09T04:21:05.768Z,16.23
2022-11-09T04:23:32.315Z,16.14
2022-11-09T04:25:59.648Z,16.17
2022-11-09T04:28:26.684Z,16.02
2022-11-09T04:30:53.374Z,16.16
2022-11-09T04:33:20.388Z,16.17
2022-11-09T04:35:47.249Z,16.07
2022-11-09T04:38:14.434Z,16.00
2022-11-09T04:40:41.340Z,15.93
2022-11-09T04:43:11.989Z,15.96
2022-11-09T04:45:38.855Z,16.02
2022-11-09T04:48:07.135Z,16.06
2022-11-09T04:50:34.751Z,16.02
2022-11-09T04:53:13.853Z,16.09
2022-11-09T04:55:41.144Z,16.02
2022-11-09T04:58:08.109Z,16.02
2022-11-09T05:00:35.759Z,15.87
2022-11-09T05:03:03.651Z,15.93
2022-11-09T05:05:30.744Z,15.94
2022-11-09T05:07:57.328Z,15.88
2022-11-09T05:10:23.947Z,15.82
2022-11-09T05:12:50.498Z,15.95
2022-11-09T05:15:17.158Z,15.93
2022-11-09T05:17:43.668Z,15.72
2022-11-09T05:20:10.857Z,15.63
2022-11-09T05:22:59.037Z,15.57
2022-11-09T05:25:25.652Z,15.48
2022-11-09T05:27:52.897Z,15.29
2022-11-09T05:30:19.633Z,15.31
2022-11-09T05:32:46.286Z,15.43
2022-11-09T05:35:13.066Z,15.32
2022-11-09T05:37:39.804Z,15.22
2022-11-09T05:40:08.428Z,15.20
2022-11-09T05:42:38.505Z,15.16
2022-11-09T05:45:35.744Z,15.18
2022-11-09T05:47:53.046Z,15.34
2022-11-09T05:50:19.664Z,15.22
2022-11-09T05:52:50.052Z,15.18
2022-11-09T05:55:16.778Z,15.25
2022-11-09T05:57:43.321Z,15.28
2022-11-09T06:00:11.209Z,15.32
2022-11-09T06:02:39.612Z,15.44
2022-11-09T06:05:06.421Z,15.60
2022-11-09T06:07:33.303Z,15.58
2022-11-09T06:10:00.027Z,15.48
2022-11-09T06:12:26.864Z,15.56
2022-11-09T06:14:53.404Z,15.43
2022-11-09T06:17:20.029Z,15.32
2022-11-09T06:19:46.560Z,15.24
2022-11-09T06:22:13.422Z,15.35
2022-11-09T06:24:40.274Z,15.18
2022-11-09T06:27:06.949Z,15.26
2022-11-09T06:29:33.681Z,15.14
2022-11-09T06:32:00.429Z,15.30
2022-11-09T06:34:27.064Z,15.41
2022-11-09T06:36:53.702Z,15.31
2022-11-09T06:39:20.286Z,15.31
2022-11-09T06:41:47.792Z,15.30
2022-11-09T06:44:15.172Z,15.31
2022-11-09T06:46:41.763Z,15.36
2022-11-09T06:49:08.300Z,15.47
2022-11-09T06:51:35.025Z,15.39
2022-11-09T06:54:01.607Z,15.36
2022-11-09T06:56:28.265Z,15.55
2022-11-09T06:58:55.389Z,15.36
2022-11-09T07:01:26.971Z,15.44
2022-11-09T07:03:53.763Z,15.38
2022-11-09T07:06:20.478Z,15.43
2022-11-09T07:08:47.036Z,15.22
2022-11-09T07:11:19.511Z,15.38
2022-11-09T07:13:56.314Z,15.25
2022-11-09T07:16:24.300Z,15.23
2022-11-09T07:18:51.007Z,15.13
2022-11-09T07:21:17.914Z,15.23
2022-11-09T07:23:47.422Z,15.26
2022-11-09T07:26:14.256Z,15.31
2022-11-09T07:28:41.101Z,15.40
2022-11-09T07:31:08.306Z,15.45
2022-11-09T07:33:35.091Z,15.21
2022-11-09T07:36:03.083Z,15.18
2022-11-09T07:38:30.092Z,15.18
2022-11-09T07:41:00.965Z,15.26
2022-11-09T07:43:28.680Z,15.34
2022-11-09T07:45:57.333Z,15.34
2022-11-09T07:48:24.087Z,15.32
2022-11-09T07:50:50.670Z,15.00
2022-11-09T07:53:17.720Z,14.79
2022-11-09T07:55:44.604Z,14.75
2022-11-09T07:58:13.693Z,14.77
2022-11-09T08:00:41.833Z,14.68
2022-11-09T08:03:09.175Z,14.60
2022-11-09T08:05:36.534Z,14.66
2022-11-09T08:08:06.454Z,14.59
2022-11-09T08:10:34.764Z,14.54
2022-11-09T08:13:13.263Z,14.75
2022-11-09T08:15:41.476Z,14.71
2022-11-09T08:18:12.297Z,14.65
2022-11-09T08:20:39.398Z,14.69
2022-11-09T08:23:06.492Z,14.62
2022-11-09T08:25:34.443Z,14.71
2022-11-09T08:28:01.715Z,14.54
2022-11-09T08:30:28.385Z,14.51
2022-11-09T08:32:55.316Z,14.57
2022-11-09T08:35:23.866Z,14.60
2022-11-09T08:37:52.270Z,14.63
2022-11-09T08:40:24.244Z,14.74
2022-11-09T08:42:51.832Z,14.74
2022-11-09T08:45:19.598Z,14.79
2022-11-09T08:47:46.579Z,14.73
2022-11-09T08:50:14.642Z,14.80
2022-11-09T08:52:41.277Z,14.98
2022-11-09T08:55:08.322Z,14.98
2022-11-09T08:57:35.011Z,14.93
2022-11-09T09:00:01.677Z,14.98
2022-11-09T09:02:28.377Z,15.01
2022-11-09T09:04:55.217Z,15.12
2022-11-09T09:07:22.090Z,15.12
2022-11-09T09:09:49.044Z,15.01
2022-11-09T09:12:15.854Z,15.12
2022-11-09T09:14:42.397Z,14.92
2022-11-09T09:17:09.153Z,15.01
2022-11-09T09:19:35.844Z,15.08
2022-11-09T09:22:02.583Z,14.88
2022-11-09T09:24:29.186Z,14.90
2022-11-09T09:26:55.929Z,14.94
2022-11-09T09:29:22.672Z,14.95
2022-11-09T09:31:49.286Z,14.91
2022-11-09T09:34:15.946Z,14.92
2022-11-09T09:36:47.665Z,14.98
2022-11-09T09:39:15.381Z,15.01
2022-11-09T09:42:19.966Z,15.19
2022-11-09T09:44:54.929Z,15.22
2022-11-09T09:47:33.424Z,15.38
2022-11-09T09:50:09.471Z,15.35
2022-11-09T09:52:54.135Z,15.34
2022-11-09T09:55:37.192Z,15.40
2022-11-09T09:58:18.552Z,15.33
2022-11-09T10:00:45.322Z,15.30
2022-11-09T10:03:18.607Z,15.19
2022-11-09T10:05:55.222Z,14.99
2022-11-09T10:08:45.352Z,15.24
2022-11-09T10:11:44.231Z,15.29
2022-11-09T10:14:32.387Z,15.42
2022-11-09T10:17:20.722Z,15.25
2022-11-09T10:20:02.415Z,15.12
2022-11-09T10:23:06.733Z,15.05
2022-11-09T10:26:02.378Z,15.31
2022-11-09T10:28:42.369Z,15.29
2022-11-09T10:31:20.560Z,15.56
2022-11-09T10:33:54.291Z,15.62
2022-11-09T10:36:31.564Z,15.73
2022-11-09T10:39:01.403Z,15.75
2022-11-09T10:41:46.991Z,15.75
2022-11-09T10:44:32.403Z,15.81
2022-11-09T10:47:18.880Z,15.71
2022-11-09T10:50:16.282Z,15.60
2022-11-09T10:53:14.750Z,15.54
2022-11-09T10:56:21.349Z,15.57
2022-11-09T10:59:31.538Z,15.50
2022-11-09T11:02:26.141Z,15.45
2022-11-09T11:05:17.747Z,15.53
2022-11-09T11:08:22.957Z,15.43
2022-11-09T11:11:37.106Z,15.52
2022-11-09T11:14:33.241Z,15.78
2022-11-09T11:17:24.944Z,15.81
2022-11-09T11:20:29.692Z,15.94
2022-11-09T11:23:23.020Z,15.86
2022-11-09T11:26:38.035Z,15.76
2022-11-09T11:29:58.368Z,15.80
2022-11-09T11:32:49.865Z,15.81
2022-11-09T11:35:44.021Z,15.98
2022-11-09T11:38:36.357Z,16.13
2022-11-09T11:41:43.361Z,15.99
2022-11-09T11:44:28.318Z,15.85
2022-11-09T11:47:21.060Z,15.88
2022-11-09T11:50:25.218Z,15.96
2022-11-09T11:53:28.333Z,15.99
2022-11-09T11:56:24.437Z,15.89
2022-11-09T11:59:27.981Z,15.70
2022-11-09T12:02:46.926Z,15.84
2022-11-09T12:06:06.327Z,15.81
2022-11-09T12:09:36.109Z,15.72
2022-11-09T12:12:49.236Z,15.59
2022-11-09T12:16:02.512Z,15.61
2022-11-09T12:19:35.320Z,15.65
2022-11-09T12:22:37.532Z,15.80
2022-11-09T12:25:29.294Z,15.89
2022-11-09T12:28:52.454Z,15.74
2022-11-09T12:32:04.694Z,15.60
2022-11-09T12:35:16.474Z,15.56
2022-11-09T12:38:29.190Z,15.78
2022-11-09T12:41:19.117Z,15.72
2022-11-09T12:44:17.238Z,15.75
2022-11-09T12:47:17.117Z,15.74
2022-11-09T12:50:02.978Z,15.73
2022-11-09T12:52:49.126Z,15.61
2022-11-09T12:55:50.476Z,15.70
2022-11-09T12:58:38.667Z,15.75
2022-11-09T13:01:27.140Z,15.73
2022-11-09T13:04:18.416Z,16.04
2022-11-09T13:07:03.836Z,15.84
2022-11-09T13:09:58.768Z,15.75
2022-11-09T13:12:44.048Z,15.66
2022-11-09T13:15:32.818Z,15.56
2022-11-09T13:18:33.676Z,15.49
2022-11-09T13:21:21.236Z,15.49
2022-11-09T13:24:31.328Z,15.59
2022-11-09T13:27:41.308Z,15.59
2022-11-09T13:30:40.113Z,15.63
2022-11-09T13:33:28.341Z,15.64
2022-11-09T13:36:16.915Z,15.56
2022-11-09T13:39:27.248Z,15.50
2022-11-09T13:42:34.415Z,15.49
2022-11-09T13:45:50.497Z,15.51
2022-11-09T13:48:50.651Z,15.64
2022-11-09T13:51:35.874Z,15.64
2022-11-09T13:54:37.509Z,15.36
2022-11-09T13:57:24.831Z,15.40
2022-11-09T14:00:19.498Z,15.49
2022-11-09T14:03:23.910Z,15.39
2022-11-09T14:06:12.231Z,15.44
2022-11-09T14:08:58.781Z,15.65
2022-11-09T14:12:08.724Z,15.84
2022-11-09T14:15:00.124Z,15.66
2022-11-09T14:18:07.819Z,15.81
2022-11-09T14:21:27.242Z,15.53
2022-11-09T14:24:15.209Z,15.59
2022-11-09T14:27:11.287Z,15.62
2022-11-09T14:29:59.194Z,15.68
2022-11-09T14:32:50.287Z,15.72
2022-11-09T14:35:37.183Z,15.38
2022-11-09T14:38:35.428Z,15.31
2022-11-09T14:41:25.144Z,15.36
2022-11-09T14:44:35.681Z,15.31
2022-11-09T14:47:34.264Z,15.17
2022-11-09T14:50:29.369Z,15.39
2022-11-09T14:53:22.401Z,15.26
2022-11-09T14:56:11.855Z,15.09
2022-11-09T14:58:57.979Z,15.05
2022-11-09T15:02:04.968Z,15.03
2022-11-09T15:05:01.011Z,15.06
2022-11-09T15:07:48.028Z,15.08
2022-11-09T15:10:34.280Z,14.91
2022-11-09T15:13:28.360Z,14.90
2022-11-09T15:16:31.202Z,15.01
2022-11-09T15:19:39.750Z,15.06
2022-11-09T15:22:44.408Z,14.97
2022-11-09T15:25:35.127Z,14.88
2022-11-09T15:28:30.947Z,14.99
2022-11-09T15:31:19.283Z,14.97
2022-11-09T15:34:26.703Z,14.93
2022-11-09T15:37:42.786Z,14.92
2022-11-09T15:40:27.918Z,14.93
2022-11-09T15:43:13.378Z,14.99
2022-11-09T15:46:00.297Z,15.14
2022-11-09T15:48:46.216Z,15.01
2022-11-09T15:51:31.908Z,14.91
2022-11-09T15:54:17.174Z,14.99
2022-11-09T15:57:02.326Z,15.14
2022-11-09T15:59:49.267Z,15.02
2022-11-09T16:02:34.674Z,14.81
2022-11-09T16:05:20.055Z,14.71
2022-11-09T16:08:07.496Z,14.78
2022-11-09T16:10:53.324Z,14.79
2022-11-09T16:13:38.929Z,14.51
2022-11-09T16:16:23.988Z,14.53
2022-11-09T16:19:14.109Z,14.51
2022-11-09T16:22:02.028Z,14.65
2022-11-09T16:24:48.201Z,14.59
2022-11-09T16:27:49.656Z,14.53
2022-11-09T16:30:35.631Z,14.45
2022-11-09T16:33:21.006Z,14.44
2022-11-09T16:36:11.162Z,14.55
2022-11-09T16:38:57.798Z,14.55
2022-11-09T16:41:46.765Z,14.38
2022-11-09T16:44:35.078Z,14.41
2022-11-09T16:47:20.986Z,14.37
2022-11-09T16:50:06.598Z,14.39
2022-11-09T16:52:52.163Z,14.33
2022-11-09T16:55:37.148Z,14.39
2022-11-09T16:58:22.939Z,14.41
2022-11-09T17:01:12.390Z,14.36
2022-11-09T17:03:58.056Z,14.41
2022-11-09T17:06:43.348Z,14.45
2022-11-09T17:09:33.696Z,14.61
2022-11-09T17:12:19.227Z,14.50
2022-11-09T17:15:04.647Z,14.53
2022-11-09T17:17:49.690Z,14.36
2022-11-09T17:20:34.757Z,14.50
2022-11-09T17:23:20.359Z,14.44
2022-11-09T17:26:07.760Z,14.42
2022-11-09T17:28:53.014Z,14.38
2022-11-09T17:31:38.496Z,14.28
2022-11-09T17:34:23.954Z,14.20
2022-11-09T17:37:09.053Z,14.36
2022-11-09T17:39:54.307Z,14.51
2022-11-09T17:42:39.838Z,14.26
2022-11-09T17:45:25.925Z,14.16
2022-11-09T17:48:11.224Z,14.30
2022-11-09T17:50:57.421Z,14.28
2022-11-09T17:53:43.420Z,14.25
2022-11-09T17:56:28.968Z,14.22
2022-11-09T17:59:14.043Z,14.13
2022-11-09T18:01:59.518Z,13.98
2022-11-09T18:04:44.896Z,14.16
2022-11-09T18:07:31.017Z,14.14
2022-11-09T18:10:16.795Z,14.20
2022-11-09T18:13:02.330Z,13.97
2022-11-09T18:15:47.658Z,13.97
2022-11-09T18:18:33.488Z,13.94
2022-11-09T18:21:19.850Z,13.87
2022-11-09T18:24:05.552Z,13.91
2022-11-09T18:26:51.614Z,13.99
2022-11-09T18:29:37.086Z,13.88
2022-11-09T18:32:22.360Z,13.89
2022-11-09T18:35:07.788Z,13.88
2022-11-09T18:37:52.896Z,13.85
2022-11-09T18:40:38.210Z,13.80
2022-11-09T18:43:23.604Z,13.77
2022-11-09T18:46:10.655Z,13.79
2022-11-09T18:48:55.712Z,13.71
2022-11-09T18:51:40.757Z,13.72
2022-11-09T18:54:26.279Z,13.80
2022-11-09T18:57:13.785Z,13.69
2022-11-09T19:00:03.158Z,13.52
2022-11-09T19:02:48.200Z,13.65
2022-11-09T19:05:36.702Z,13.65
2022-11-09T19:08:42.155Z,13.50
2022-11-09T19:11:27.715Z,13.65
2022-11-09T19:14:13.009Z,13.64
2022-11-09T19:16:58.169Z,13.66
2022-11-09T19:19:43.405Z,13.63
2022-11-09T19:22:29.917Z,13.58
2022-11-09T19:25:15.416Z,13.69
2022-11-09T19:28:00.797Z,13.56
2022-11-09T19:30:46.077Z,13.62
2022-11-09T19:33:31.461Z,13.38
2022-11-09T19:36:33.288Z,13.44
2022-11-09T19:39:18.442Z,13.47
2022-11-09T19:42:03.536Z,13.53
2022-11-09T19:44:52.204Z,13.47
2022-11-09T19:47:41.182Z,13.47
2022-11-09T19:50:26.287Z,13.60
2022-11-09T19:53:11.396Z,13.69
2022-11-09T19:55:58.996Z,13.67
2022-11-09T19:58:48.681Z,13.56
2022-11-09T20:01:34.128Z,13.52
2022-11-09T20:04:19.321Z,13.60
2022-11-09T20:07:04.507Z,13.62
2022-11-09T20:09:50.031Z,13.43
2022-11-09T20:12:50.449Z,13.49
2022-11-09T20:15:36.343Z,13.39
2022-11-09T20:18:23.550Z,13.40
2022-11-09T20:21:09.121Z,13.40
2022-11-09T20:23:54.647Z,13.36
2022-11-09T20:26:40.313Z,13.41
2022-11-09T20:29:25.754Z,13.47
2022-11-09T20:32:12.469Z,13.46
2022-11-09T20:34:58.172Z,13.44
2022-11-09T20:37:43.511Z,13.42
2022-11-09T20:40:28.602Z,13.29
2022-11-09T20:43:13.598Z,13.25
2022-11-09T20:46:34.331Z,13.34
2022-11-09T20:49:21.171Z,13.34
2022-11-09T20:52:06.257Z,12.92
2022-11-09T20:54:51.259Z,13.00
2022-11-09T20:57:36.520Z,13.01
2022-11-09T21:00:24.518Z,12.94
2022-11-09T21:03:10.191Z,13.08
2022-11-09T21:05:59.118Z,12.98
2022-11-09T21:08:52.383Z,12.86
2022-11-09T21:11:57.536Z,12.90
2022-11-09T21:14:42.602Z,12.76
2022-11-09T21:17:27.654Z,12.80
2022-11-09T21:20:12.899Z,12.81
2022-11-09T21:23:13.660Z,12.79
2022-11-09T21:31:17.535Z,12.61
2022-11-09T21:34:03.069Z,12.74
2022-11-09T21:36:48.323Z,12.67
2022-11-09T21:39:34.053Z,12.66
2022-11-09T21:42:19.687Z,12.54
2022-11-09T21:45:05.219Z,12.64
2022-11-09T21:47:50.781Z,12.71
2022-11-09T21:50:35.756Z,12.69
2022-11-09T21:53:21.344Z,12.73
2022-11-09T21:56:07.418Z,12.69
2022-11-09T21:58:52.956Z,12.76
2022-11-09T22:01:38.225Z,12.71
2022-11-09T22:04:23.496Z,12.87
2022-11-09T22:07:09.462Z,12.76
2022-11-09T22:10:11.613Z,12.88
2022-11-09T22:13:15.889Z,12.82
2022-11-09T22:16:09.644Z,12.69
2022-11-09T22:19:13.286Z,12.57
2022-11-09T22:21:58.581Z,12.77
2022-11-09T22:24:43.900Z,12.72
2022-11-09T22:27:32.970Z,12.78
2022-11-09T22:30:18.686Z,12.72
2022-11-09T22:33:04.159Z,12.71
2022-11-09T22:35:56.490Z,12.72
2022-11-09T22:38:42.688Z,12.64
2022-11-09T22:41:28.105Z,12.60
2022-11-09T22:44:13.595Z,12.49
2022-11-09T22:46:59.009Z,12.61
2022-11-09T22:49:44.110Z,12.61
2022-11-09T22:52:29.193Z,12.64
2022-11-09T22:55:14.290Z,12.55
2022-11-09T22:57:59.535Z,12.56
2022-11-09T23:00:44.605Z,12.47
2022-11-09T23:03:30.180Z,12.56
2022-11-09T23:06:21.809Z,12.50
2022-11-09T23:09:07.006Z,12.54
2022-11-09T23:11:52.239Z,12.45
2022-11-09T23:14:56.057Z,12.59
2022-11-09T23:18:00.027Z,12.65
2022-11-09T23:20:45.625Z,12.64
2022-11-09T23:23:30.879Z,12.62
2022-11-09T23:26:16.617Z,12.67
2022-11-09T23:29:01.696Z,12.66
2022-11-09T23:31:46.947Z,12.74
2022-11-09T23:34:32.001Z,12.77
2022-11-09T23:37:17.344Z,12.73
2022-11-09T23:40:03.013Z,12.58
2022-11-09T23:42:49.059Z,12.58
2022-11-09T23:45:35.635Z,12.57
2022-11-09T23:48:21.082Z,12.46
2022-11-09T23:51:07.627Z,12.35
2022-11-09T23:53:52.871Z,12.37
2022-11-09T23:56:38.110Z,12.41
2022-11-09T23:59:23.314Z,12.30
